Cooperstown, ND

9:57 PM CDT on September 29, 2016 (GMT -0500)
Cooperstown

Weather History for KS32 - October, 2012

Change the Weather History Date:

Sunday, October 7, 2012

  Actual Average (KJMS) Record (KJMS)
Temperature  
Mean Temperature 40 °F 48 °F  
Max Temperature 55 °F 60 °F 86 °F (1966)
Min Temperature 26 °F 36 °F 15 °F (1976)
Degree Days  
Heating Degree Days 24 17  
Month to date heating degree days 109  
Since 1 July heating degree days 427  
Cooling Degree Days 0 0  
Month to date cooling degree days 0  
Year to date cooling degree days 445  
Moisture  
Dew Point 27 °F    
Average Humidity 68    
Maximum Humidity 93    
Minimum Humidity 33    
Precipitation  
Precipitation 0.00 in 0.06 in 1.07 in (1901)
Month to date precipitation 0.42  
Year to date precipitation 16.61  
Sea Level Pressure  
Sea Level Pressure 29.88 in    
Wind  
Wind Speed 10 mph (WSW)    
Max Wind Speed 16 mph    
Max Gust Speed 22 mph    
Visibility 10 miles    
Events      
T = Trace of Precipitation, MM = Missing Value Source: NWS Daily Summary

Daily Weather History Graph

Daily Weather History Graph

Search for Another Location

Airport or City:

Trip Planner

Search our weather history database for the weather conditions in past years. The results will help you decide how hot, cold, wet, or windy it might be!

Date:

Astronomy

Oct. 07, 2012 Rise Set
Actual Time 7:40 AM CDT 6:58 PM CDT
Civil Twilight 7:09 AM CDT 7:29 PM CDT
Nautical Twilight 6:34 AM CDT 8:04 PM CDT
Astronomical Twilight 5:58 AM CDT 8:40 PM CDT
Moon 11:55 PM CDT (10/7) 2:35 PM CDT (10/7)
Length of Visible Light 12h 19m
Length of Day
11h 18m
Waning Gibbous, 56% of the Moon is Illuminated
Oct 7
Waning Gibbous
Oct 8
Last Quarter
Oct 15
New
Oct 21
First Quarter
Oct 29
Full

Hourly Weather History & Observations

Time (CDT) Temp. Windchill Dew Point Humidity Pressure Visibility Wind Dir Wind Speed Gust Speed Precip Events Conditions
12:15 AM 28.4 °F 18.5 °F 24.8 °F 86% 30.10 in 10.0 mi SW 11.5 mph - N/A   Clear
12:35 AM 28.4 °F 18.5 °F 24.8 °F 86% 30.10 in 10.0 mi SW 11.5 mph - N/A   Clear
12:55 AM 28.4 °F 18.5 °F 24.8 °F 86% 30.09 in 10.0 mi SW 11.5 mph - N/A   Clear
1:15 AM 28.4 °F 19.1 °F 24.8 °F 86% 30.08 in 10.0 mi SW 10.4 mph - N/A   Clear
1:35 AM 28.4 °F 18.5 °F 24.8 °F 86% 30.07 in 10.0 mi SW 11.5 mph - N/A   Unknown
1:55 AM 28.4 °F 19.7 °F 24.8 °F 86% 30.07 in 10.0 mi SW 9.2 mph - N/A   Clear
2:15 AM 26.6 °F 17.5 °F 24.8 °F 93% 30.06 in 10.0 mi SW 9.2 mph - N/A   Clear
2:35 AM 26.6 °F 18.2 °F 24.8 °F 93% 30.05 in 10.0 mi SW 8.1 mph - N/A   Clear
2:55 AM 28.4 °F 18.5 °F 24.8 °F 86% 30.04 in 10.0 mi SW 11.5 mph - N/A   Clear
3:15 AM 26.6 °F 16.8 °F 24.8 °F 93% 30.03 in 10.0 mi SW 10.4 mph - N/A   Clear
3:35 AM 28.4 °F 19.1 °F 24.8 °F 86% 30.03 in 10.0 mi WSW 10.4 mph - N/A   Clear
3:55 AM 30.2 °F 21.3 °F 24.8 °F 80% 30.02 in 10.0 mi SW 10.4 mph - N/A   Clear
4:15 AM 30.2 °F 21.3 °F 24.8 °F 80% 30.01 in 10.0 mi SW 10.4 mph - N/A   Partly Cloudy
4:35 AM 32.0 °F 23.0 °F 24.8 °F 75% 30.00 in 10.0 mi SW 11.5 mph - N/A   Mostly Cloudy
4:55 AM 30.2 °F 21.3 °F 24.8 °F 80% 30.00 in 10.0 mi SW 10.4 mph - N/A   Scattered Clouds
5:15 AM 28.4 °F 18.5 °F 24.8 °F 86% 29.99 in 10.0 mi SW 11.5 mph - N/A   Partly Cloudy
5:35 AM 30.2 °F 21.3 °F 24.8 °F 80% 29.98 in 10.0 mi SW 10.4 mph - N/A   Clear
5:55 AM 28.4 °F 19.7 °F 24.8 °F 86% 29.97 in 10.0 mi WSW 9.2 mph - N/A   Clear
6:15 AM 28.4 °F 19.7 °F 24.8 °F 86% 29.97 in 10.0 mi SW 9.2 mph - N/A   Scattered Clouds
6:35 AM 30.2 °F 21.9 °F 24.8 °F 80% 29.96 in 10.0 mi SW 9.2 mph - N/A   Mostly Cloudy
6:55 AM 32.0 °F 24.2 °F 24.8 °F 75% 29.95 in 10.0 mi SW 9.2 mph - N/A   Overcast
7:15 AM 32.0 °F 23.6 °F 24.8 °F 75% 29.94 in 10.0 mi SW 10.4 mph - N/A   Overcast
7:35 AM 32.0 °F 23.6 °F 24.8 °F 75% 29.94 in 10.0 mi WSW 10.4 mph - N/A   Overcast
7:55 AM 32.0 °F 24.2 °F 24.8 °F 75% 29.94 in 10.0 mi SW 9.2 mph - N/A   Overcast
8:35 AM 32.0 °F 24.2 °F 26.6 °F 80% 29.92 in 10.0 mi SW 9.2 mph - N/A   Overcast
8:55 AM 32.0 °F 23.0 °F 24.8 °F 75% 29.92 in 10.0 mi WSW 11.5 mph - N/A   Mostly Cloudy
9:15 AM 33.8 °F 26.4 °F 26.6 °F 75% 29.92 in 10.0 mi WSW 9.2 mph - N/A   Mostly Cloudy
9:35 AM 35.6 °F 28.0 °F 26.6 °F 70% 29.91 in 10.0 mi WSW 10.4 mph - N/A   Mostly Cloudy
9:55 AM 37.4 °F 30.3 °F 26.6 °F 65% 29.90 in 10.0 mi WSW 10.4 mph - N/A   Mostly Cloudy
10:15 AM 39.2 °F 32.0 °F 26.6 °F 61% 29.90 in 10.0 mi WSW 11.5 mph - N/A   Mostly Cloudy
10:35 AM 39.2 °F 32.0 °F 28.4 °F 65% 29.90 in 10.0 mi SW 11.5 mph - N/A   Mostly Cloudy
10:55 AM 41.0 °F 35.2 °F 28.4 °F 61% 29.89 in 10.0 mi SW 9.2 mph - N/A   Mostly Cloudy
11:15 AM 42.8 °F 36.6 °F 28.4 °F 57% 29.89 in 10.0 mi SW 11.5 mph - N/A   Mostly Cloudy
11:55 AM 46.4 °F 41.1 °F 26.6 °F 46% 29.88 in 10.0 mi SW 11.5 mph - N/A   Scattered Clouds
12:15 PM 48.2 °F - 28.4 °F 46% 29.87 in 10.0 mi WSW 12.7 mph - N/A   Clear
12:35 PM 50.0 °F - 28.4 °F 43% 29.86 in 10.0 mi SW 10.4 mph - N/A   Partly Cloudy
12:55 PM 50.0 °F - 26.6 °F 40% 29.86 in 10.0 mi WSW 15.0 mph 18.4 mph N/A   Clear
1:15 PM 50.0 °F - 26.6 °F 40% 29.85 in 10.0 mi SW 16.1 mph 20.7 mph N/A   Clear
1:35 PM 53.6 °F - 26.6 °F 35% 29.84 in 10.0 mi WSW 15.0 mph 19.6 mph N/A   Clear
2:35 PM 53.6 °F - 26.6 °F 35% 29.82 in 10.0 mi WSW 12.7 mph - N/A   Partly Cloudy
2:55 PM 53.6 °F - 26.6 °F 35% 29.81 in 10.0 mi WSW 16.1 mph 21.9 mph N/A   Mostly Cloudy
3:15 PM 55.4 °F - 26.6 °F 33% 29.81 in 10.0 mi WNW 15.0 mph 19.6 mph N/A   Scattered Clouds
3:35 PM 53.6 °F - 26.6 °F 35% 29.80 in 10.0 mi WSW 11.5 mph 19.6 mph N/A   Clear
3:55 PM 55.4 °F - 26.6 °F 33% 29.80 in 10.0 mi WNW 11.5 mph 19.6 mph N/A   Clear
4:15 PM 53.6 °F - 26.6 °F 35% 29.79 in 10.0 mi West 13.8 mph 18.4 mph N/A   Clear
4:35 PM 53.6 °F - 26.6 °F 35% 29.79 in 10.0 mi WNW 12.7 mph 17.3 mph N/A   Clear
4:55 PM 53.6 °F - 26.6 °F 35% 29.78 in 10.0 mi WNW 10.4 mph 16.1 mph N/A   Clear
5:15 PM 53.6 °F - 26.6 °F 35% 29.79 in 10.0 mi West 16.1 mph - N/A   Clear
5:35 PM 53.6 °F - 26.6 °F 35% 29.78 in 10.0 mi WNW 13.8 mph - N/A   Clear
5:55 PM 51.8 °F - 28.4 °F 41% 29.78 in 10.0 mi WNW 9.2 mph - N/A   Clear
6:15 PM 50.0 °F - 28.4 °F 43% 29.78 in 10.0 mi WNW 10.4 mph - N/A   Clear
6:35 PM 48.2 °F - 30.2 °F 50% 29.78 in 10.0 mi WNW 6.9 mph - N/A   Clear
6:55 PM 42.8 °F 39.3 °F 30.2 °F 61% 29.78 in 10.0 mi WNW 5.8 mph - N/A   Clear
7:15 PM 39.2 °F 34.2 °F 28.4 °F 65% 29.79 in 10.0 mi West 6.9 mph - N/A   Clear
7:35 PM 37.4 °F 32.1 °F 30.2 °F 75% 29.78 in 10.0 mi West 6.9 mph - N/A   Clear
7:55 PM 37.4 °F 33.8 °F 28.4 °F 70% 29.78 in 10.0 mi West 4.6 mph - N/A   Partly Cloudy
8:15 PM 37.4 °F 32.1 °F 28.4 °F 70% 29.78 in 10.0 mi West 6.9 mph - N/A   Partly Cloudy
8:35 PM 35.6 °F 30.7 °F 28.4 °F 75% 29.77 in 10.0 mi WSW 5.8 mph - N/A   Clear
8:55 PM 35.6 °F 31.7 °F 30.2 °F 81% 29.77 in 10.0 mi WSW 4.6 mph - N/A   Clear
9:15 PM 35.6 °F 32.8 °F 28.4 °F 75% 29.76 in 10.0 mi SSW 3.5 mph - N/A   Clear
9:35 PM 35.6 °F - 32.0 °F 87% 29.76 in 10.0 mi Calm Calm - N/A   Clear
9:55 PM 33.8 °F - 28.4 °F 81% 29.75 in 10.0 mi Calm Calm - N/A   Clear
10:15 PM 33.8 °F 30.8 °F 30.2 °F 87% 29.75 in 10.0 mi South 3.5 mph - N/A   Partly Cloudy
10:35 PM 32.0 °F 28.7 °F 30.2 °F 93% 29.74 in 10.0 mi South 3.5 mph - N/A   Partly Cloudy
10:55 PM 35.6 °F 32.8 °F 32.0 °F 87% 29.73 in 10.0 mi South 3.5 mph - N/A   Mostly Cloudy
11:15 PM 33.8 °F 28.6 °F 32.0 °F 93% 29.73 in 10.0 mi SSE 5.8 mph - N/A   Mostly Cloudy
11:35 PM 35.6 °F 29.9 °F 32.0 °F 87% 29.72 in 10.0 mi South 6.9 mph - N/A   Mostly Cloudy
11:55 PM 35.6 °F 30.7 °F 32.0 °F 87% 29.71 in 10.0 mi South 5.8 mph - N/A   Scattered Clouds